Flight Track Log - Related Links

Times and Time Zones

All times are in EDT time to prevent confusion due to time zone crossing. See the HDA835 flight status page for this flight to view local times or setup timezone preferences in your user account.

Time Position Orientation Groundspeed Altitude Reporting Facility
EDT Latitude Longitude Course Direction KTS MPH feet Rate Location/Type
Sun 08:23:23 AM 31.1256 121.8242 162° South 144 166 1,400  Level FlightAware ADS-B (ZSSL)
Sun 08:23:38 AM 31.1159 121.8282 155° Southeast 145 167 2,000 1,800 Climbing FlightAware ADS-B (ZSSL)
Sun 08:23:53 AM 31.1085 121.8378 112° Southeast 166 191 2,300 1,029 Climbing FlightAware ADS-B (ZSSL)
Sun 08:24:13 AM 31.1035 121.8572 107° East 198 228 2,600 750 Climbing FlightAware ADS-B (ZSSL)
Sun 08:24:33 AM 31.0973 121.8795 107° East 237 273 2,800 1,029 Climbing FlightAware ADS-B (ZSSL)
Sun 08:24:48 AM 31.0922 121.8980 108° East 259 298 3,200 2,000 Climbing FlightAware ADS-B (ZSSL)
Sun 08:25:03 AM 31.0863 121.9192 107° East 273 314 3,800 3,000 Climbing FlightAware ADS-B (ZSSL)
Sun 08:25:18 AM 31.0806 121.9405 107° East 276 318 4,700 3,800 Climbing FlightAware ADS-B (ZSSL)
Sun 08:25:33 AM 31.0751 121.9613 107° East 269 310 5,700 3,400 Climbing FlightAware ADS-B (ZSSL)
Sun 08:25:48 AM 31.0703 121.9799 106° East 278 320 6,400 2,432 Climbing FlightAware ADS-B (ZSSL)
Sun 08:26:10 AM 31.0624 122.0107 106° East 287 330 7,200 2,533 Climbing FlightAware ADS-B (ZSSS / SHA)
Sun 08:26:33 AM 31.0522 122.0504 106° East 302 348 8,300 2,684 Climbing FlightAware ADS-B (ZSSL)
Sun 08:26:48 AM 31.0460 122.0744 106° East 310 357 8,900 2,200 Climbing FlightAware ADS-B (ZSSL)
Sun 08:27:03 AM 31.0394 122.0996 106° East 322 371 9,400 2,372 Climbing FlightAware ADS-B (ZSSL)
Sun 08:27:31 AM 31.0273 122.1457 107° East 334 384 10,600 1,700 Climbing FlightAware ADS-B (ZSSL)
Sun 08:28:03 AM 31.0113 122.2051 109° East 372 428 11,100 1,038 Climbing FlightAware ADS-B (ZSSL)
Sun 08:28:23 AM 30.9936 122.2387 131° Southeast 383 441 11,500 1,750 Climbing FlightAware ADS-B (ZSSL)
Sun 08:28:51 AM 30.9531 122.2672 160° South 378 435 12,500 2,400 Climbing FlightAware ADS-B (ZSSL)
Sun 08:29:33 AM 30.8884 122.2907 162° South 381 438 14,300 2,333 Climbing FlightAware ADS-B (ZSSL)
Sun 08:30:03 AM 30.8289 122.3127 162° South 390 449 15,300 2,040 Climbing FlightAware ADS-B (ZSSL)
Sun 08:30:23 AM 30.8019 122.3228 162° South 395 455 16,000 2,000 Climbing FlightAware ADS-B (ZSSL)
Sun 08:30:51 AM 30.7456 122.3438 162° South 401 461 16,900 1,355 Climbing FlightAware ADS-B (ZSSL)
Sun 08:31:25 AM 30.6847 122.3661 162° South 401 461 17,400 980 Climbing FlightAware ADS-B (ZSSL)
Sun 08:31:40 AM 30.6476 122.3797 162° South 435 501 17,700 1,773 Climbing FlightAware ADS-B (ZBAA / PEK)
Sun 08:32:09 AM 30.6014 122.3965 164° South 423 487 18,700 2,327 Climbing FlightAware ADS-B (ZSSL)
Sun 08:32:29 AM 30.5634 122.4010 183° South 405 466 19,600 1,959 Climbing FlightAware ADS-B (ZSSL)
Sun 08:32:58 AM 30.5076 122.3974 184° South 411 473 20,300 1,424 Climbing FlightAware ADS-B (ZSSL)
Sun 08:33:28 AM 30.4513 122.3936 184° South 418 481 21,000 1,391 Climbing FlightAware ADS-B (ZSSL)
Sun 08:34:07 AM 30.3749 122.3893 184° South 418 481 21,900 2,400 Climbing FlightAware ADS-B (ZSSL)
Sun 08:34:58 AM 30.2788 122.3838 183° South 382 440 24,600 2,483 Climbing FlightAware ADS-B (ZSSL)
Sun 08:35:34 AM 30.2158 122.3801 183° South 383 441 25,500 1,477 Climbing FlightAware ADS-B (ZSSL)
Sun 08:36:03 AM 30.1624 122.3768 183° South 388 447 26,200 1,826 Climbing FlightAware ADS-B (ZSSL)
Sun 08:36:20 AM 30.1255 122.3746 183° South 386 444 26,900 1,574 Climbing FlightAware ADS-B (ZBAA / PEK)
Sun 08:37:04 AM 30.0559 122.3705 183° South 384 442 27,800 1,315 Climbing FlightAware ADS-B (ZSSL)
Sun 08:37:33 AM 30.0032 122.3639 198° South 374 430 28,500 987 Climbing FlightAware ADS-B (ZSSL)
Sun 08:38:23 AM 29.9224 122.3086 210° Southwest 382 440 29,100 761 Climbing FlightAware ADS-B (ZBAA / PEK)
Sun 08:38:44 AM 29.8867 122.2971 187° South 401 461 29,400 1,024 Climbing FlightAware ADS-B (ZBAA / PEK)
Sun 08:39:04 AM 29.8545 122.2968 174° South 409 471 29,800 1,350 Climbing FlightAware ADS-B (ZBAA / PEK)
Sun 08:39:24 AM 29.8120 122.3087 159° South 416 479 30,300 1,627 Climbing FlightAware ADS-B (ZBAA / PEK)
Sun 08:40:03 AM 29.7428 122.3435 159° South 407 468 31,400 1,215 Climbing FlightAware ADS-B (ZBAA / PEK)
Sun 08:40:43 AM 29.6711 122.3664 168° South 407 468 31,900 444 Climbing FlightAware ADS-B (ZBAA / PEK)
Sun 08:41:24 AM 29.6038 122.3817 169° South 422 486 32,000 167 Climbing FlightAware ADS-B
Sun 08:41:55 AM 29.5446 122.3949 169° South 430 495 32,100 304 Climbing FlightAware ADS-B
Sun 08:42:43 AM 29.4404 122.4191 169° South 449 517 32,400 786 Climbing FlightAware ADS-B (ZBAA / PEK)
Sun 08:43:19 AM 29.3625 122.4363 172° South 443 510 33,200 1,040 Climbing FlightAware ADS-B (ZBAA / PEK)
Sun 08:43:58 AM 29.2938 122.4425 202° Southwest 370 426 33,700 831 Climbing FlightAware ADS-B (ZSSL)
Sun 08:44:24 AM 29.2341 122.4395 185° South 436 502 34,100 738 Climbing FlightAware ADS-B (ZBAA / PEK)
Sun 08:45:03 AM 29.1607 122.4255 194° South 438 504 34,500 923 Climbing FlightAware ADS-B (ZBAA / PEK)
Sun 08:45:42 AM 29.0809 122.3962 202° Southwest 424 488 35,300 815 Climbing FlightAware ADS-B (ZBAA / PEK)
Sun 08:46:24 AM 29.0362 122.3755 191° South 434 499 35,600 593 Climbing FlightAware ADS-B (ZBAA / PEK)
Sun 08:47:03 AM 28.9260 122.3489 194° South 431 496 36,100 361 Climbing FlightAware ADS-B (ZBAA / PEK)
Sun 08:47:47 AM 28.8521 122.3240 198° South 434 499 36,100  Level FlightAware ADS-B (ZSSL)
Sun 08:48:20 AM 28.7786 122.2931 205° Southwest 432 497 36,100 -160 Level FlightAware ADS-B (ZBAA / PEK)
Sun 08:50:00 AM 28.6822 122.1558 231° Southwest  Level Estimated
Sun 08:51:00 AM 28.6242 122.0736 231° Southwest  Level Estimated
Sun 08:52:00 AM 28.5662 121.9914 231° Southwest  Level Estimated
Sun 08:53:00 AM 28.5082 121.9094 231° Southwest  Level Estimated
Sun 08:54:00 AM 28.4501 121.8274 231° Southwest  Level Estimated
Sun 08:55:00 AM 28.3919 121.7456 231° Southwest  Level Estimated
Sun 08:56:00 AM 28.3337 121.6638 231° Southwest  Level Estimated
Sun 08:57:00 AM 28.2755 121.5821 231° Southwest  Level Estimated
Sun 08:58:00 AM 28.2172 121.5005 231° Southwest  Level Estimated
Sun 08:59:00 AM 28.1588 121.4190 231° Southwest  Level Estimated
Sun 09:00:00 AM 28.1004 121.3375 231° Southwest  Level Estimated
Sun 09:01:00 AM 28.0420 121.2562 231° Southwest  Level Estimated
Sun 09:02:00 AM 27.9835 121.1749 231° Southwest  Level Estimated
Sun 09:03:00 AM 27.9250 121.0938 231° Southwest  Level Estimated
Sun 09:04:00 AM 27.8664 121.0127 231° Southwest  Level Estimated
Sun 09:05:00 AM 27.8078 120.9317 231° Southwest  Level Estimated
Sun 09:06:00 AM 27.7491 120.8508 231° Southwest  Level Estimated
Sun 09:07:00 AM 27.6904 120.7700 231° Southwest  Level Estimated
Sun 09:08:00 AM 27.6316 120.6893 231° Southwest  Level Estimated
Sun 09:09:00 AM 27.5728 120.6087 231° Southwest  Level Estimated
Sun 09:10:00 AM 27.5139 120.5281 231° Southwest  Level Estimated
Sun 09:11:00 AM 27.4550 120.4476 230° Southwest  Level Estimated
Sun 09:12:00 AM 27.3960 120.3672 230° Southwest  Level Estimated
Sun 09:13:00 AM 27.3370 120.2870 230° Southwest  Level Estimated
Sun 09:14:00 AM 27.2780 120.2067 230° Southwest  Level Estimated
Sun 09:15:00 AM 27.2189 120.1266 230° Southwest  Level Estimated
Sun 09:16:00 AM 27.1597 120.0466 230° Southwest  Level Estimated
Sun 09:17:00 AM 27.1006 119.9666 230° Southwest  Level Estimated
Sun 09:18:00 AM 27.0413 119.8868 230° Southwest  Level Estimated
Sun 09:19:00 AM 26.9821 119.8070 230° Southwest  Level Estimated
Sun 09:20:00 AM 26.9227 119.7273 230° Southwest  Level Estimated
Sun 09:21:00 AM 26.8634 119.6477 230° Southwest  Level Estimated
Sun 09:22:00 AM 26.8040 119.5681 230° Southwest  Level Estimated
Sun 09:23:00 AM 26.7445 119.4887 230° Southwest  Level Estimated
Sun 09:24:00 AM 26.6850 119.4093 230° Southwest  Level Estimated
Sun 09:25:00 AM 26.6255 119.3300 230° Southwest  Level Estimated
Sun 09:26:00 AM 26.5659 119.2508 230° Southwest  Level Estimated
Sun 09:27:00 AM 26.5063 119.1717 230° Southwest  Level Estimated
Sun 09:28:00 AM 26.4466 119.0927 230° Southwest  Level Estimated
Sun 09:29:00 AM 26.3869 119.0137 230° Southwest  Level Estimated
Sun 09:30:00 AM 26.3271 118.9349 230° Southwest  Level Estimated
Sun 09:31:00 AM 26.2673 118.8561 230° Southwest  Level Estimated
Sun 09:32:00 AM 26.2075 118.7774 230° Southwest  Level Estimated
Sun 09:33:00 AM 26.1476 118.6987 230° Southwest  Level Estimated
Sun 09:34:00 AM 26.0876 118.6202 230° Southwest  Level Estimated
Sun 09:35:00 AM 26.0277 118.5417 230° Southwest  Level Estimated
Sun 09:36:00 AM 25.9676 118.4633 230° Southwest  Level Estimated
Sun 09:37:00 AM 25.9076 118.3850 230° Southwest  Level Estimated
Sun 09:38:00 AM 25.8475 118.3068 230° Southwest  Level Estimated
Sun 09:39:00 AM 25.7873 118.2286 229° Southwest  Level Estimated
Sun 09:40:00 AM 25.7272 118.1506 229° Southwest  Level Estimated
Sun 09:41:00 AM 25.6669 118.0726 229° Southwest  Level Estimated
Sun 09:42:00 AM 25.6067 117.9947 229° Southwest  Level Estimated
Sun 09:43:00 AM 25.5464 117.9168 229° Southwest  Level Estimated
Sun 09:44:00 AM 25.4860 117.8391 229° Southwest  Level Estimated
Sun 09:45:00 AM 25.4256 117.7614 229° Southwest  Level Estimated
Sun 09:46:00 AM 25.3652 117.6838 229° Southwest  Level Estimated
Sun 09:47:00 AM 25.3047 117.6063 229° Southwest  Level Estimated
Sun 09:48:00 AM 25.2442 117.5288 229° Southwest  Level Estimated
Sun 09:49:00 AM 25.1836 117.4515 229° Southwest  Level Estimated
Sun 09:50:00 AM 25.1231 117.3742 229° Southwest  Level Estimated
Sun 09:51:00 AM 25.0624 117.2970 229° Southwest  Level Estimated
Sun 09:52:00 AM 25.0018 117.2198 229° Southwest  Level Estimated
Sun 09:53:00 AM 24.9410 117.1428 229° Southwest  Level Estimated
Sun 09:54:00 AM 24.8803 117.0658 229° Southwest  Level Estimated
Sun 09:55:00 AM 24.8195 116.9889 229° Southwest  Level Estimated
Sun 09:56:00 AM 24.7587 116.9120 229° Southwest  Level Estimated
Sun 09:57:00 AM 24.6978 116.8353 229° Southwest  Level Estimated
Sun 09:58:00 AM 24.6369 116.7586 229° Southwest  Level Estimated
Sun 09:58:32 AM 22.3036 115.6613 258° West 418 481 24,800  Level FlightAware ADS-B
Sun 10:11:07 AM 22.2528 114.4293 268° West 295 339 11,800 -1,011 Descending FlightAware ADS-B
Sun 10:11:47 AM 22.2504 114.3663 268° West 296 341 11,400 -600 Descending FlightAware ADS-B
Sun 10:12:27 AM 22.2483 114.3063 268° West 292 336 11,000 -393 Descending FlightAware ADS-B
Sun 10:12:48 AM 22.2431 114.2798 248° West 274 315 11,000  Level FlightAware ADS-B
Sun 10:13:22 AM 22.2228 114.2268 248° West 249 287 11,000  Level FlightAware ADS-B
Sun 10:14:01 AM 22.2062 114.1830 248° West 251 289 11,000 -779 Level FlightAware ADS-B
Sun 10:14:39 AM 22.1900 114.1400 248° West 270 311 10,000 -1,574 Descending FlightAware ADS-B
Sun 10:15:02 AM 22.1777 114.1074 248° West 276 318 9,400 -1,286 Descending FlightAware ADS-B
Sun 10:15:21 AM 22.1684 114.0827 248° West 273 314 9,100 -1,200 Descending FlightAware ADS-B
Sun 10:15:42 AM 22.1583 114.0561 248° West 272 313 8,600 -1,200 Descending FlightAware ADS-B
Sun 10:16:01 AM 22.1477 114.0340 235° Southwest 263 303 8,300 -769 Descending FlightAware ADS-B
Sun 10:16:21 AM 22.1397 114.0225 232° Southwest 251 289 8,100 -732 Descending FlightAware ADS-B
Sun 10:16:42 AM 22.1325 113.9866 232° Southwest 243 280 7,800 -1,050 Descending FlightAware ADS-B
Sun 10:17:01 AM 22.1189 113.9682 232° Southwest 243 280 7,400 -1,231 Descending FlightAware ADS-B
Sun 10:17:21 AM 22.1038 113.9474 234° Southwest 242 278 7,000 -1,385 Descending FlightAware ADS-B
Sun 10:17:40 AM 22.0853 113.9374 270° West 253 291 6,500 -1,350 Descending FlightAware ADS-B
Sun 10:18:01 AM 22.0902 113.9082 288° West 255 293 6,100 -1,024 Descending FlightAware ADS-B
Sun 10:18:21 AM 22.0977 113.8850 289° West 253 291 5,800 -1,050 Descending FlightAware ADS-B
Sun 10:18:41 AM 22.1057 113.8605 289° West 253 291 5,400 -1,200 Descending FlightAware ADS-B
Sun 10:19:01 AM 22.1142 113.8365 299° West 253 291 5,000 -1,171 Descending FlightAware ADS-B
Sun 10:19:22 AM 22.1304 113.8172 317° Northwest 251 289 4,600 -1,135 Descending FlightAware ADS-B
Sun 10:19:38 AM 22.1440 113.8038 318° Northwest 246 283 4,300 -615 Descending FlightAware ADS-B
Sun 10:20:01 AM 22.1586 113.7894 318° Northwest 233 268 4,200 -689 Descending FlightAware ADS-B
Sun 10:21:40 AM 22.2453 113.7414 22° Northeast 178 205 2,900 -783 Descending FlightAware ADS-B
Sun 10:21:56 AM 22.2567 113.7477 33° Northeast 174 200 2,700 -750 Descending FlightAware ADS-B
Sun 10:24:00 AM 22.3089 113.9146 71° East  Level Estimated
Sun 10:25:00 AM 22.3089 113.9146 North  Level Estimated
Sun 10:26:00 AM 22.3089 113.9146 North  Level Estimated
Sun 10:27:00 AM 22.3089 113.9146 North  Level Estimated
Sun 10:28:00 AM 22.3089 113.9146 North  Level Estimated
Sun 10:29:00 AM 22.3089 113.9146 North  Level Estimated
Sun 10:30:00 AM 22.3089 113.9146 North  Level Estimated
Sun 10:31:00 AM 22.3089 113.9146 North  Level Estimated
Sun 10:32:00 AM 22.3089 113.9146 North  Level Estimated
Sun 10:33:00 AM 22.3089 113.9146 North  Level Estimated
Sun 10:34:00 AM 22.3089 113.9146 North  Level Estimated
Sun 10:35:00 AM 22.3089 113.9146 North  Level Estimated
Sun 10:36:00 AM 22.3089 113.9146 North  Level Estimated
Sun 10:37:00 AM 22.3089 113.9146 North  Level Estimated
Sun 10:38:00 AM 22.3089 113.9146 North  Level Estimated
Sun 10:39:00 AM 22.3089 113.9146 North  Level Estimated
Sun 10:40:00 AM 22.3089 113.9146 North  Level Estimated
Sun 10:41:00 AM 22.3089 113.9146 North  Level Estimated

Login

Don't have an account? Register now (free) for customized features, flight alerts, and more!